sensor_id;sensor_type;location;lat;lon;timestamp;temperature;humidity
9219;DHT22;4644;48.858;9.184;2023-04-15T00:00:37;5.40;99.90
9219;DHT22;4644;48.858;9.184;2023-04-15T00:03:05;5.40;99.90
9219;DHT22;4644;48.858;9.184;2023-04-15T00:05:33;5.40;99.90
9219;DHT22;4644;48.858;9.184;2023-04-15T00:08:00;5.30;99.90
9219;DHT22;4644;48.858;9.184;2023-04-15T00:10:27;5.30;99.90
9219;DHT22;4644;48.858;9.184;2023-04-15T00:12:54;5.30;99.90
9219;DHT22;4644;48.858;9.184;2023-04-15T00:15:22;5.30;99.90
9219;DHT22;4644;48.858;9.184;2023-04-15T00:17:50;5.30;99.90
9219;DHT22;4644;48.858;9.184;2023-04-15T00:20:18;5.30;99.90
9219;DHT22;4644;48.858;9.184;2023-04-15T00:22:45;5.30;99.90
9219;DHT22;4644;48.858;9.184;2023-04-15T00:25:13;5.30;99.90
9219;DHT22;4644;48.858;9.184;2023-04-15T00:27:41;5.30;99.90
9219;DHT22;4644;48.858;9.184;2023-04-15T00:30:08;5.20;99.90
9219;DHT22;4644;48.858;9.184;2023-04-15T00:32:36;5.20;99.90
9219;DHT22;4644;48.858;9.184;2023-04-15T00:35:04;5.10;99.90
9219;DHT22;4644;48.858;9.184;2023-04-15T00:37:32;5.10;99.90
9219;DHT22;4644;48.858;9.184;2023-04-15T00:40:01;5.10;99.90
9219;DHT22;4644;48.858;9.184;2023-04-15T00:42:29;5.00;99.90
9219;DHT22;4644;48.858;9.184;2023-04-15T00:44:56;5.00;99.90
9219;DHT22;4644;48.858;9.184;2023-04-15T00:47:23;5.00;99.90
9219;DHT22;4644;48.858;9.184;2023-04-15T00:49:51;4.90;99.90
9219;DHT22;4644;48.858;9.184;2023-04-15T00:52:18;4.90;99.90
9219;DHT22;4644;48.858;9.184;2023-04-15T00:54:47;4.90;99.90
9219;DHT22;4644;48.858;9.184;2023-04-15T00:57:15;4.90;99.90
9219;DHT22;4644;48.858;9.184;2023-04-15T00:59:42;4.80;99.90
9219;DHT22;4644;48.858;9.184;2023-04-15T01:02:09;4.90;99.90
9219;DHT22;4644;48.858;9.184;2023-04-15T01:04:37;4.80;99.90
9219;DHT22;4644;48.858;9.184;2023-04-15T01:07:04;4.90;99.90
9219;DHT22;4644;48.858;9.184;2023-04-15T01:09:31;4.80;99.90
9219;DHT22;4644;48.858;9.184;2023-04-15T01:12:00;4.70;99.90
9219;DHT22;4644;48.858;9.184;2023-04-15T01:14:28;4.70;99.90
9219;DHT22;4644;48.858;9.184;2023-04-15T01:16:55;4.70;99.90
9219;DHT22;4644;48.858;9.184;2023-04-15T01:19:23;4.70;99.90
9219;DHT22;4644;48.858;9.184;2023-04-15T01:21:53;4.70;99.90
9219;DHT22;4644;48.858;9.184;2023-04-15T01:24:20;4.70;99.90
9219;DHT22;4644;48.858;9.184;2023-04-15T01:26:50;4.70;99.90
9219;DHT22;4644;48.858;9.184;2023-04-15T01:29:17;4.60;99.90
9219;DHT22;4644;48.858;9.184;2023-04-15T01:31:49;4.60;99.90
9219;DHT22;4644;48.858;9.184;2023-04-15T01:34:17;4.60;99.90
9219;DHT22;4644;48.858;9.184;2023-04-15T01:36:44;4.60;99.90
9219;DHT22;4644;48.858;9.184;2023-04-15T01:39:12;4.60;99.90
9219;DHT22;4644;48.858;9.184;2023-04-15T01:41:39;4.50;99.90
9219;DHT22;4644;48.858;9.184;2023-04-15T01:44:08;4.50;99.90
9219;DHT22;4644;48.858;9.184;2023-04-15T01:46:36;4.40;99.90
9219;DHT22;4644;48.858;9.184;2023-04-15T01:49:03;4.40;99.90
9219;DHT22;4644;48.858;9.184;2023-04-15T01:51:30;4.40;99.90
9219;DHT22;4644;48.858;9.184;2023-04-15T01:53:58;4.40;99.90
9219;DHT22;4644;48.858;9.184;2023-04-15T01:56:25;4.50;99.90
9219;DHT22;4644;48.858;9.184;2023-04-15T01:58:52;4.50;99.90
9219;DHT22;4644;48.858;9.184;2023-04-15T02:01:21;4.40;99.90
9219;DHT22;4644;48.858;9.184;2023-04-15T02:03:48;4.40;99.90
9219;DHT22;4644;48.858;9.184;2023-04-15T02:06:15;4.40;99.90
9219;DHT22;4644;48.858;9.184;2023-04-15T02:08:43;4.30;99.90
9219;DHT22;4644;48.858;9.184;2023-04-15T02:11:10;4.30;99.90
9219;DHT22;4644;48.858;9.184;2023-04-15T02:13:37;4.30;99.90
9219;DHT22;4644;48.858;9.184;2023-04-15T02:16:14;4.30;99.90
9219;DHT22;4644;48.858;9.184;2023-04-15T02:18:43;4.30;99.90
9219;DHT22;4644;48.858;9.184;2023-04-15T02:21:11;4.20;99.90
9219;DHT22;4644;48.858;9.184;2023-04-15T02:23:38;4.20;99.90
9219;DHT22;4644;48.858;9.184;2023-04-15T02:26:05;4.20;99.90
9219;DHT22;4644;48.858;9.184;2023-04-15T02:28:32;4.20;99.90
9219;DHT22;4644;48.858;9.184;2023-04-15T02:30:59;4.20;99.90
9219;DHT22;4644;48.858;9.184;2023-04-15T02:33:27;4.20;99.90
9219;DHT22;4644;48.858;9.184;2023-04-15T02:35:55;4.20;99.90
9219;DHT22;4644;48.858;9.184;2023-04-15T02:38:22;4.10;99.90
9219;DHT22;4644;48.858;9.184;2023-04-15T02:40:49;4.10;99.90
9219;DHT22;4644;48.858;9.184;2023-04-15T02:43:16;4.00;99.90
9219;DHT22;4644;48.858;9.184;2023-04-15T02:45:44;4.10;99.90
9219;DHT22;4644;48.858;9.184;2023-04-15T02:48:12;4.00;99.90
9219;DHT22;4644;48.858;9.184;2023-04-15T02:50:41;4.00;99.90
9219;DHT22;4644;48.858;9.184;2023-04-15T02:53:10;3.90;99.90
9219;DHT22;4644;48.858;9.184;2023-04-15T02:55:38;3.90;99.90
9219;DHT22;4644;48.858;9.184;2023-04-15T02:58:05;3.90;99.90
9219;DHT22;4644;48.858;9.184;2023-04-15T03:00:32;3.80;99.90
9219;DHT22;4644;48.858;9.184;2023-04-15T03:03:02;3.80;99.90
9219;DHT22;4644;48.858;9.184;2023-04-15T03:05:29;3.80;99.90
9219;DHT22;4644;48.858;9.184;2023-04-15T03:07:57;3.80;99.90
9219;DHT22;4644;48.858;9.184;2023-04-15T03:10:27;3.80;99.90
9219;DHT22;4644;48.858;9.184;2023-04-15T03:12:54;3.80;99.90
9219;DHT22;4644;48.858;9.184;2023-04-15T03:15:21;3.80;99.90
9219;DHT22;4644;48.858;9.184;2023-04-15T03:17:48;3.80;99.90
9219;DHT22;4644;48.858;9.184;2023-04-15T03:20:15;3.80;99.90
9219;DHT22;4644;48.858;9.184;2023-04-15T03:22:42;3.70;99.90
9219;DHT22;4644;48.858;9.184;2023-04-15T03:25:10;3.70;99.90
9219;DHT22;4644;48.858;9.184;2023-04-15T03:27:38;3.70;99.90
9219;DHT22;4644;48.858;9.184;2023-04-15T03:30:06;3.70;99.90
9219;DHT22;4644;48.858;9.184;2023-04-15T03:32:34;3.70;99.90
9219;DHT22;4644;48.858;9.184;2023-04-15T03:35:02;3.70;99.90
9219;DHT22;4644;48.858;9.184;2023-04-15T03:37:29;3.80;99.90
9219;DHT22;4644;48.858;9.184;2023-04-15T03:39:56;3.80;99.90
9219;DHT22;4644;48.858;9.184;2023-04-15T03:42:23;3.90;99.90
9219;DHT22;4644;48.858;9.184;2023-04-15T03:44:51;3.80;99.90
9219;DHT22;4644;48.858;9.184;2023-04-15T03:47:18;3.90;99.90
9219;DHT22;4644;48.858;9.184;2023-04-15T03:49:45;3.80;99.90
9219;DHT22;4644;48.858;9.184;2023-04-15T03:52:12;3.80;99.90
9219;DHT22;4644;48.858;9.184;2023-04-15T03:54:39;3.90;99.90
9219;DHT22;4644;48.858;9.184;2023-04-15T03:57:06;3.90;99.90
9219;DHT22;4644;48.858;9.184;2023-04-15T03:59:33;3.90;99.90
9219;DHT22;4644;48.858;9.184;2023-04-15T04:02:02;3.80;99.90
9219;DHT22;4644;48.858;9.184;2023-04-15T04:04:29;3.70;99.90
9219;DHT22;4644;48.858;9.184;2023-04-15T04:06:56;3.70;99.90
9219;DHT22;4644;48.858;9.184;2023-04-15T04:09:23;3.70;99.90
9219;DHT22;4644;48.858;9.184;2023-04-15T04:11:50;3.70;99.90
9219;DHT22;4644;48.858;9.184;2023-04-15T04:14:17;3.70;99.90
9219;DHT22;4644;48.858;9.184;2023-04-15T04:16:44;3.70;99.90
9219;DHT22;4644;48.858;9.184;2023-04-15T04:19:13;3.80;99.90
9219;DHT22;4644;48.858;9.184;2023-04-15T04:21:44;3.70;99.90
9219;DHT22;4644;48.858;9.184;2023-04-15T04:24:11;3.70;99.90
9219;DHT22;4644;48.858;9.184;2023-04-15T04:26:38;3.60;99.90
9219;DHT22;4644;48.858;9.184;2023-04-15T04:29:05;3.60;99.90
9219;DHT22;4644;48.858;9.184;2023-04-15T04:31:32;3.60;99.90
9219;DHT22;4644;48.858;9.184;2023-04-15T04:33:59;3.50;99.90
9219;DHT22;4644;48.858;9.184;2023-04-15T04:36:28;3.60;99.90
9219;DHT22;4644;48.858;9.184;2023-04-15T04:38:55;3.60;99.90
9219;DHT22;4644;48.858;9.184;2023-04-15T04:41:22;3.50;99.90
9219;DHT22;4644;48.858;9.184;2023-04-15T04:43:48;3.60;99.90
9219;DHT22;4644;48.858;9.184;2023-04-15T04:46:16;3.60;99.90
9219;DHT22;4644;48.858;9.184;2023-04-15T04:48:43;3.60;99.90
9219;DHT22;4644;48.858;9.184;2023-04-15T04:51:10;3.60;99.90
9219;DHT22;4644;48.858;9.184;2023-04-15T04:53:38;3.50;99.90
9219;DHT22;4644;48.858;9.184;2023-04-15T04:56:06;3.60;99.90
9219;DHT22;4644;48.858;9.184;2023-04-15T04:58:33;3.60;99.90
9219;DHT22;4644;48.858;9.184;2023-04-15T05:01:00;3.60;99.90
9219;DHT22;4644;48.858;9.184;2023-04-15T05:03:27;3.70;99.90
9219;DHT22;4644;48.858;9.184;2023-04-15T05:05:54;3.70;99.90
9219;DHT22;4644;48.858;9.184;2023-04-15T05:08:21;3.70;99.90
9219;DHT22;4644;48.858;9.184;2023-04-15T05:10:50;3.70;99.90
9219;DHT22;4644;48.858;9.184;2023-04-15T05:13:17;3.70;99.90
9219;DHT22;4644;48.858;9.184;2023-04-15T05:15:46;3.70;99.90
9219;DHT22;4644;48.858;9.184;2023-04-15T05:18:13;3.70;99.90
9219;DHT22;4644;48.858;9.184;2023-04-15T05:20:40;3.70;99.90
9219;DHT22;4644;48.858;9.184;2023-04-15T05:23:07;3.60;99.90
9219;DHT22;4644;48.858;9.184;2023-04-15T05:25:34;3.60;99.90
9219;DHT22;4644;48.858;9.184;2023-04-15T05:28:02;3.60;99.90
9219;DHT22;4644;48.858;9.184;2023-04-15T05:30:29;3.60;99.90
9219;DHT22;4644;48.858;9.184;2023-04-15T05:32:56;3.60;99.90
9219;DHT22;4644;48.858;9.184;2023-04-15T05:35:23;3.50;99.90
9219;DHT22;4644;48.858;9.184;2023-04-15T05:37:50;3.60;99.90
9219;DHT22;4644;48.858;9.184;2023-04-15T05:40:17;3.60;99.90
9219;DHT22;4644;48.858;9.184;2023-04-15T05:42:44;3.70;99.90
9219;DHT22;4644;48.858;9.184;2023-04-15T05:45:13;3.80;99.90
9219;DHT22;4644;48.858;9.184;2023-04-15T05:47:40;3.80;99.90
9219;DHT22;4644;48.858;9.184;2023-04-15T05:50:08;3.90;99.90
9219;DHT22;4644;48.858;9.184;2023-04-15T05:52:35;4.00;99.90
9219;DHT22;4644;48.858;9.184;2023-04-15T05:55:02;4.10;99.90
9219;DHT22;4644;48.858;9.184;2023-04-15T05:57:30;4.20;99.90
9219;DHT22;4644;48.858;9.184;2023-04-15T05:59:57;4.20;99.90
9219;DHT22;4644;48.858;9.184;2023-04-15T06:02:25;4.40;99.90
9219;DHT22;4644;48.858;9.184;2023-04-15T06:04:52;4.60;99.90
9219;DHT22;4644;48.858;9.184;2023-04-15T06:07:19;4.80;99.90
9219;DHT22;4644;48.858;9.184;2023-04-15T06:09:46;4.90;99.90
9219;DHT22;4644;48.858;9.184;2023-04-15T06:12:14;5.00;99.90
9219;DHT22;4644;48.858;9.184;2023-04-15T06:14:41;5.20;99.90
9219;DHT22;4644;48.858;9.184;2023-04-15T06:17:08;5.20;99.90
9219;DHT22;4644;48.858;9.184;2023-04-15T06:19:37;5.30;99.90
9219;DHT22;4644;48.858;9.184;2023-04-15T06:22:04;5.30;99.90
9219;DHT22;4644;48.858;9.184;2023-04-15T06:24:32;5.40;99.90
9219;DHT22;4644;48.858;9.184;2023-04-15T06:27:01;5.40;99.90
9219;DHT22;4644;48.858;9.184;2023-04-15T06:29:28;5.40;99.90
9219;DHT22;4644;48.858;9.184;2023-04-15T06:31:55;5.50;99.90
9219;DHT22;4644;48.858;9.184;2023-04-15T06:34:22;5.70;99.90
9219;DHT22;4644;48.858;9.184;2023-04-15T06:36:50;6.00;99.90
9219;DHT22;4644;48.858;9.184;2023-04-15T06:39:19;6.20;99.90
9219;DHT22;4644;48.858;9.184;2023-04-15T06:41:46;6.40;99.90
9219;DHT22;4644;48.858;9.184;2023-04-15T06:44:13;6.60;99.90
9219;DHT22;4644;48.858;9.184;2023-04-15T06:46:40;6.80;99.90
9219;DHT22;4644;48.858;9.184;2023-04-15T06:49:08;7.00;99.90
9219;DHT22;4644;48.858;9.184;2023-04-15T06:51:35;7.40;99.90
9219;DHT22;4644;48.858;9.184;2023-04-15T06:54:03;7.80;99.90
9219;DHT22;4644;48.858;9.184;2023-04-15T06:56:32;8.10;99.90
9219;DHT22;4644;48.858;9.184;2023-04-15T06:58:59;8.60;99.90
9219;DHT22;4644;48.858;9.184;2023-04-15T07:01:26;9.00;99.90
9219;DHT22;4644;48.858;9.184;2023-04-15T07:03:54;9.20;99.90
9219;DHT22;4644;48.858;9.184;2023-04-15T07:06:21;9.70;99.90
9219;DHT22;4644;48.858;9.184;2023-04-15T07:08:48;10.00;99.90
9219;DHT22;4644;48.858;9.184;2023-04-15T07:11:17;10.00;99.90
9219;DHT22;4644;48.858;9.184;2023-04-15T07:13:44;10.00;99.90
9219;DHT22;4644;48.858;9.184;2023-04-15T07:16:11;9.90;99.90
9219;DHT22;4644;48.858;9.184;2023-04-15T07:18:38;9.90;99.90
9219;DHT22;4644;48.858;9.184;2023-04-15T07:21:05;9.80;99.90
9219;DHT22;4644;48.858;9.184;2023-04-15T07:23:32;9.50;99.90
9219;DHT22;4644;48.858;9.184;2023-04-15T07:25:59;9.50;99.90
9219;DHT22;4644;48.858;9.184;2023-04-15T07:28:27;9.50;99.90
9219;DHT22;4644;48.858;9.184;2023-04-15T07:30:54;9.40;99.90
9219;DHT22;4644;48.858;9.184;2023-04-15T07:33:22;9.40;99.90
9219;DHT22;4644;48.858;9.184;2023-04-15T07:35:49;9.40;99.90
9219;DHT22;4644;48.858;9.184;2023-04-15T07:38:16;9.50;99.90
9219;DHT22;4644;48.858;9.184;2023-04-15T07:40:43;9.70;99.90
9219;DHT22;4644;48.858;9.184;2023-04-15T07:43:10;10.00;99.90
9219;DHT22;4644;48.858;9.184;2023-04-15T07:45:39;10.20;99.90
9219;DHT22;4644;48.858;9.184;2023-04-15T07:48:06;10.70;99.90
9219;DHT22;4644;48.858;9.184;2023-04-15T07:50:33;11.10;99.90
9219;DHT22;4644;48.858;9.184;2023-04-15T07:53:00;11.20;99.90
9219;DHT22;4644;48.858;9.184;2023-04-15T07:55:27;11.40;99.90
9219;DHT22;4644;48.858;9.184;2023-04-15T07:57:55;11.90;99.90
9219;DHT22;4644;48.858;9.184;2023-04-15T08:00:22;12.30;99.90
9219;DHT22;4644;48.858;9.184;2023-04-15T08:02:51;12.50;99.90
9219;DHT22;4644;48.858;9.184;2023-04-15T08:05:18;12.70;99.90
9219;DHT22;4644;48.858;9.184;2023-04-15T08:07:45;13.20;99.90
9219;DHT22;4644;48.858;9.184;2023-04-15T08:10:13;13.60;99.90
9219;DHT22;4644;48.858;9.184;2023-04-15T08:12:40;14.20;99.60
9219;DHT22;4644;48.858;9.184;2023-04-15T08:15:08;14.60;98.00
9219;DHT22;4644;48.858;9.184;2023-04-15T08:17:37;14.90;99.90
9219;DHT22;4644;48.858;9.184;2023-04-15T08:20:07;14.60;99.40
9219;DHT22;4644;48.858;9.184;2023-04-15T08:22:34;14.60;99.60
9219;DHT22;4644;48.858;9.184;2023-04-15T08:25:09;14.50;99.90
9219;DHT22;4644;48.858;9.184;2023-04-15T08:27:39;14.40;98.70
9219;DHT22;4644;48.858;9.184;2023-04-15T08:30:07;14.60;96.30
9219;DHT22;4644;48.858;9.184;2023-04-15T08:32:35;14.70;96.70
9219;DHT22;4644;48.858;9.184;2023-04-15T08:35:02;15.10;95.30
9219;DHT22;4644;48.858;9.184;2023-04-15T08:37:31;15.30;94.10
9219;DHT22;4644;48.858;9.184;2023-04-15T08:40:01;15.30;93.70
9219;DHT22;4644;48.858;9.184;2023-04-15T08:42:30;15.70;93.30
9219;DHT22;4644;48.858;9.184;2023-04-15T08:44:58;15.70;93.60
9219;DHT22;4644;48.858;9.184;2023-04-15T08:47:29;16.00;92.80
9219;DHT22;4644;48.858;9.184;2023-04-15T08:49:57;16.40;93.00
9219;DHT22;4644;48.858;9.184;2023-04-15T08:52:24;16.70;91.80
9219;DHT22;4644;48.858;9.184;2023-04-15T08:54:56;17.00;91.30
9219;DHT22;4644;48.858;9.184;2023-04-15T08:57:25;16.80;90.80
9219;DHT22;4644;48.858;9.184;2023-04-15T08:59:53;17.20;91.00
9219;DHT22;4644;48.858;9.184;2023-04-15T09:02:22;17.30;87.20
9219;DHT22;4644;48.858;9.184;2023-04-15T09:04:49;17.50;87.40
9219;DHT22;4644;48.858;9.184;2023-04-15T09:07:16;17.80;83.60
9219;DHT22;4644;48.858;9.184;2023-04-15T09:09:44;18.00;80.50
9219;DHT22;4644;48.858;9.184;2023-04-15T09:13:52;18.00;78.70
9219;DHT22;4644;48.858;9.184;2023-04-15T09:16:19;18.00;79.10
9219;DHT22;4644;48.858;9.184;2023-04-15T09:18:47;18.10;77.60
9219;DHT22;4644;48.858;9.184;2023-04-15T09:21:16;18.00;76.20
9219;DHT22;4644;48.858;9.184;2023-04-15T09:23:54;18.00;81.20
9219;DHT22;4644;48.858;9.184;2023-04-15T09:26:30;18.00;74.60
9219;DHT22;4644;48.858;9.184;2023-04-15T09:29:03;17.80;75.00
9219;DHT22;4644;48.858;9.184;2023-04-15T09:31:32;17.70;75.60
9219;DHT22;4644;48.858;9.184;2023-04-15T09:33:59;17.40;72.30
9219;DHT22;4644;48.858;9.184;2023-04-15T09:36:26;17.30;74.50
9219;DHT22;4644;48.858;9.184;2023-04-15T09:38:55;17.00;72.60
9219;DHT22;4644;48.858;9.184;2023-04-15T09:41:23;16.40;72.10
9219;DHT22;4644;48.858;9.184;2023-04-15T09:43:51;16.10;76.30
9219;DHT22;4644;48.858;9.184;2023-04-15T09:46:19;16.00;77.30
9219;DHT22;4644;48.858;9.184;2023-04-15T09:48:46;15.90;77.50
9219;DHT22;4644;48.858;9.184;2023-04-15T09:51:34;16.00;80.00
9219;DHT22;4644;48.858;9.184;2023-04-15T09:54:02;16.10;74.20
9219;DHT22;4644;48.858;9.184;2023-04-15T09:56:33;16.00;77.10
9219;DHT22;4644;48.858;9.184;2023-04-15T09:59:00;16.10;77.30
9219;DHT22;4644;48.858;9.184;2023-04-15T10:01:29;16.30;80.00
9219;DHT22;4644;48.858;9.184;2023-04-15T10:03:57;16.50;77.00
9219;DHT22;4644;48.858;9.184;2023-04-15T10:06:25;16.50;76.50
9219;DHT22;4644;48.858;9.184;2023-04-15T10:08:53;16.20;75.40
9219;DHT22;4644;48.858;9.184;2023-04-15T10:11:21;15.90;77.80
9219;DHT22;4644;48.858;9.184;2023-04-15T10:13:50;16.00;77.70
9219;DHT22;4644;48.858;9.184;2023-04-15T10:16:19;16.40;80.40
9219;DHT22;4644;48.858;9.184;2023-04-15T10:18:54;16.80;78.80
9219;DHT22;4644;48.858;9.184;2023-04-15T10:21:21;17.00;79.10
9219;DHT22;4644;48.858;9.184;2023-04-15T10:23:49;17.40;74.70
9219;DHT22;4644;48.858;9.184;2023-04-15T10:26:16;17.40;73.70
9219;DHT22;4644;48.858;9.184;2023-04-15T10:28:43;17.30;72.50
9219;DHT22;4644;48.858;9.184;2023-04-15T10:31:12;17.50;83.00
9219;DHT22;4644;48.858;9.184;2023-04-15T10:33:41;17.70;72.80
9219;DHT22;4644;48.858;9.184;2023-04-15T10:36:11;17.90;70.80
9219;DHT22;4644;48.858;9.184;2023-04-15T10:38:39;18.00;69.10
9219;DHT22;4644;48.858;9.184;2023-04-15T10:41:15;17.80;69.10
9219;DHT22;4644;48.858;9.184;2023-04-15T10:43:49;17.50;70.30
9219;DHT22;4644;48.858;9.184;2023-04-15T10:46:26;17.60;71.80
9219;DHT22;4644;48.858;9.184;2023-04-15T10:49:06;17.50;73.10
9219;DHT22;4644;48.858;9.184;2023-04-15T10:51:37;17.80;77.80
9219;DHT22;4644;48.858;9.184;2023-04-15T10:54:08;17.90;70.80
9219;DHT22;4644;48.858;9.184;2023-04-15T10:56:40;18.10;69.50
9219;DHT22;4644;48.858;9.184;2023-04-15T10:59:08;18.10;67.90
9219;DHT22;4644;48.858;9.184;2023-04-15T11:01:53;18.10;69.40
9219;DHT22;4644;48.858;9.184;2023-04-15T11:04:51;18.50;68.90
9219;DHT22;4644;48.858;9.184;2023-04-15T11:07:37;18.90;67.40
9219;DHT22;4644;48.858;9.184;2023-04-15T11:13:28;18.90;70.80
9219;DHT22;4644;48.858;9.184;2023-04-15T11:15:58;19.20;68.60
9219;DHT22;4644;48.858;9.184;2023-04-15T11:18:28;18.80;67.20
9219;DHT22;4644;48.858;9.184;2023-04-15T11:20:57;18.70;73.00
9219;DHT22;4644;48.858;9.184;2023-04-15T11:23:31;18.40;64.60
9219;DHT22;4644;48.858;9.184;2023-04-15T11:25:59;18.70;66.00
9219;DHT22;4644;48.858;9.184;2023-04-15T11:28:28;18.80;65.80
9219;DHT22;4644;48.858;9.184;2023-04-15T11:30:56;18.30;63.80
9219;DHT22;4644;48.858;9.184;2023-04-15T11:33:23;17.80;65.50
9219;DHT22;4644;48.858;9.184;2023-04-15T11:35:52;17.40;66.80
9219;DHT22;4644;48.858;9.184;2023-04-15T11:38:20;16.80;70.00
9219;DHT22;4644;48.858;9.184;2023-04-15T11:40:50;16.20;73.00
9219;DHT22;4644;48.858;9.184;2023-04-15T11:43:20;15.80;74.70
9219;DHT22;4644;48.858;9.184;2023-04-15T11:45:50;15.70;75.90
9219;DHT22;4644;48.858;9.184;2023-04-15T11:48:19;15.80;75.80
9219;DHT22;4644;48.858;9.184;2023-04-15T11:50:50;16.00;75.60
9219;DHT22;4644;48.858;9.184;2023-04-15T11:53:18;16.10;75.80
9219;DHT22;4644;48.858;9.184;2023-04-15T11:55:48;16.10;74.00
9219;DHT22;4644;48.858;9.184;2023-04-15T11:58:17;16.20;75.20
9219;DHT22;4644;48.858;9.184;2023-04-15T12:00:49;16.10;75.40
9219;DHT22;4644;48.858;9.184;2023-04-15T12:03:23;16.10;72.20
9219;DHT22;4644;48.858;9.184;2023-04-15T12:06:20;16.10;71.80
9219;DHT22;4644;48.858;9.184;2023-04-15T12:08:59;16.10;73.20
9219;DHT22;4644;48.858;9.184;2023-04-15T12:11:40;16.00;77.50
9219;DHT22;4644;48.858;9.184;2023-04-15T12:14:23;15.80;76.60
9219;DHT22;4644;48.858;9.184;2023-04-15T12:16:51;15.50;74.50
9219;DHT22;4644;48.858;9.184;2023-04-15T12:19:23;15.20;75.60
9219;DHT22;4644;48.858;9.184;2023-04-15T12:21:52;14.70;79.10
9219;DHT22;4644;48.858;9.184;2023-04-15T12:24:20;13.70;93.40
9219;DHT22;4644;48.858;9.184;2023-04-15T12:26:50;12.60;97.70
9219;DHT22;4644;48.858;9.184;2023-04-15T12:29:18;11.70;99.90
9219;DHT22;4644;48.858;9.184;2023-04-15T12:31:47;11.10;99.90
9219;DHT22;4644;48.858;9.184;2023-04-15T12:34:15;10.50;99.90
9219;DHT22;4644;48.858;9.184;2023-04-15T12:36:43;10.10;99.90
9219;DHT22;4644;48.858;9.184;2023-04-15T12:39:10;9.70;99.90
9219;DHT22;4644;48.858;9.184;2023-04-15T12:41:37;9.60;99.90
9219;DHT22;4644;48.858;9.184;2023-04-15T12:44:06;9.60;99.90
9219;DHT22;4644;48.858;9.184;2023-04-15T12:46:33;9.50;99.90
9219;DHT22;4644;48.858;9.184;2023-04-15T12:49:00;9.60;99.90
9219;DHT22;4644;48.858;9.184;2023-04-15T12:51:27;9.70;99.90
9219;DHT22;4644;48.858;9.184;2023-04-15T12:53:56;10.00;99.90
9219;DHT22;4644;48.858;9.184;2023-04-15T12:56:23;10.00;99.90
9219;DHT22;4644;48.858;9.184;2023-04-15T12:58:50;10.20;99.90
9219;DHT22;4644;48.858;9.184;2023-04-15T13:01:19;10.20;99.90
9219;DHT22;4644;48.858;9.184;2023-04-15T13:03:46;10.10;99.90
9219;DHT22;4644;48.858;9.184;2023-04-15T13:06:15;10.00;99.90
9219;DHT22;4644;48.858;9.184;2023-04-15T13:08:42;10.00;99.90
9219;DHT22;4644;48.858;9.184;2023-04-15T13:11:09;10.10;99.90
9219;DHT22;4644;48.858;9.184;2023-04-15T13:13:36;10.10;99.90
9219;DHT22;4644;48.858;9.184;2023-04-15T13:16:04;10.10;99.90
9219;DHT22;4644;48.858;9.184;2023-04-15T13:18:32;10.20;99.90
9219;DHT22;4644;48.858;9.184;2023-04-15T13:21:00;10.30;99.90
9219;DHT22;4644;48.858;9.184;2023-04-15T13:23:27;10.40;99.90
9219;DHT22;4644;48.858;9.184;2023-04-15T13:25:54;10.60;99.90
9219;DHT22;4644;48.858;9.184;2023-04-15T13:28:21;10.80;99.90
9219;DHT22;4644;48.858;9.184;2023-04-15T13:30:48;11.10;99.90
9219;DHT22;4644;48.858;9.184;2023-04-15T13:33:16;11.30;99.90
9219;DHT22;4644;48.858;9.184;2023-04-15T13:35:44;11.50;99.90
9219;DHT22;4644;48.858;9.184;2023-04-15T13:38:11;11.80;99.90
9219;DHT22;4644;48.858;9.184;2023-04-15T13:40:38;12.10;99.90
9219;DHT22;4644;48.858;9.184;2023-04-15T13:43:05;12.20;99.90
9219;DHT22;4644;48.858;9.184;2023-04-15T13:45:32;12.40;99.90
9219;DHT22;4644;48.858;9.184;2023-04-15T13:47:59;12.50;99.00
9219;DHT22;4644;48.858;9.184;2023-04-15T13:50:27;12.40;95.90
9219;DHT22;4644;48.858;9.184;2023-04-15T13:52:55;12.40;96.80
9219;DHT22;4644;48.858;9.184;2023-04-15T13:55:22;12.20;96.30
9219;DHT22;4644;48.858;9.184;2023-04-15T13:57:50;12.10;96.40
9219;DHT22;4644;48.858;9.184;2023-04-15T14:00:17;12.10;96.10
9219;DHT22;4644;48.858;9.184;2023-04-15T14:02:44;12.00;96.30
9219;DHT22;4644;48.858;9.184;2023-04-15T14:05:11;12.00;96.00
9219;DHT22;4644;48.858;9.184;2023-04-15T14:07:38;12.00;96.10
9219;DHT22;4644;48.858;9.184;2023-04-15T14:10:07;11.90;92.50
9219;DHT22;4644;48.858;9.184;2023-04-15T14:12:34;11.90;94.00
9219;DHT22;4644;48.858;9.184;2023-04-15T14:15:01;11.90;93.40
9219;DHT22;4644;48.858;9.184;2023-04-15T14:17:29;12.00;92.90
9219;DHT22;4644;48.858;9.184;2023-04-15T14:19:56;11.90;92.70
9219;DHT22;4644;48.858;9.184;2023-04-15T14:22:23;11.90;92.60
9219;DHT22;4644;48.858;9.184;2023-04-15T14:24:50;11.90;92.10
9219;DHT22;4644;48.858;9.184;2023-04-15T14:27:20;11.90;91.40
9219;DHT22;4644;48.858;9.184;2023-04-15T14:29:48;11.90;91.50
9219;DHT22;4644;48.858;9.184;2023-04-15T14:32:15;11.80;92.50
9219;DHT22;4644;48.858;9.184;2023-04-15T14:34:42;11.90;91.70
9219;DHT22;4644;48.858;9.184;2023-04-15T14:37:09;11.80;92.50
9219;DHT22;4644;48.858;9.184;2023-04-15T14:39:36;11.70;93.30
9219;DHT22;4644;48.858;9.184;2023-04-15T14:42:03;11.70;93.20
9219;DHT22;4644;48.858;9.184;2023-04-15T14:44:31;11.60;94.30
9219;DHT22;4644;48.858;9.184;2023-04-15T14:46:58;11.60;94.50
9219;DHT22;4644;48.858;9.184;2023-04-15T14:49:25;11.50;95.40
9219;DHT22;4644;48.858;9.184;2023-04-15T14:51:53;11.40;95.10
9219;DHT22;4644;48.858;9.184;2023-04-15T14:54:20;11.30;94.90
9219;DHT22;4644;48.858;9.184;2023-04-15T14:56:47;11.30;95.70
9219;DHT22;4644;48.858;9.184;2023-04-15T14:59:14;11.20;94.60
9219;DHT22;4644;48.858;9.184;2023-04-15T15:01:42;11.20;94.80
9219;DHT22;4644;48.858;9.184;2023-04-15T15:04:10;11.20;96.10
9219;DHT22;4644;48.858;9.184;2023-04-15T15:06:37;11.10;96.00
9219;DHT22;4644;48.858;9.184;2023-04-15T15:09:05;11.00;97.20
9219;DHT22;4644;48.858;9.184;2023-04-15T15:11:32;11.00;96.50
9219;DHT22;4644;48.858;9.184;2023-04-15T15:13:59;11.00;96.40
9219;DHT22;4644;48.858;9.184;2023-04-15T15:16:27;10.90;96.40
9219;DHT22;4644;48.858;9.184;2023-04-15T15:18:55;10.80;97.00
9219;DHT22;4644;48.858;9.184;2023-04-15T15:21:22;10.80;97.20
9219;DHT22;4644;48.858;9.184;2023-04-15T15:23:49;10.70;97.70
9219;DHT22;4644;48.858;9.184;2023-04-15T15:26:24;10.70;97.30
9219;DHT22;4644;48.858;9.184;2023-04-15T15:28:52;10.70;96.90
9219;DHT22;4644;48.858;9.184;2023-04-15T15:31:19;10.70;97.10
9219;DHT22;4644;48.858;9.184;2023-04-15T15:33:46;10.70;98.10
9219;DHT22;4644;48.858;9.184;2023-04-15T15:36:15;10.60;97.80
9219;DHT22;4644;48.858;9.184;2023-04-15T15:38:42;10.70;97.50
9219;DHT22;4644;48.858;9.184;2023-04-15T15:41:09;10.70;98.00
9219;DHT22;4644;48.858;9.184;2023-04-15T15:43:36;10.70;96.90
9219;DHT22;4644;48.858;9.184;2023-04-15T15:46:03;10.70;97.30
9219;DHT22;4644;48.858;9.184;2023-04-15T15:48:30;10.70;98.10
9219;DHT22;4644;48.858;9.184;2023-04-15T15:50:57;10.60;98.40
9219;DHT22;4644;48.858;9.184;2023-04-15T15:53:26;10.60;98.90
9219;DHT22;4644;48.858;9.184;2023-04-15T15:55:53;10.50;99.90
9219;DHT22;4644;48.858;9.184;2023-04-15T15:58:20;10.60;99.90
9219;DHT22;4644;48.858;9.184;2023-04-15T16:00:47;10.50;99.90
9219;DHT22;4644;48.858;9.184;2023-04-15T16:03:14;10.40;99.90
9219;DHT22;4644;48.858;9.184;2023-04-15T16:05:41;10.30;99.90
9219;DHT22;4644;48.858;9.184;2023-04-15T16:08:08;10.10;99.90
9219;DHT22;4644;48.858;9.184;2023-04-15T16:10:37;10.00;99.90
9219;DHT22;4644;48.858;9.184;2023-04-15T16:13:03;9.90;99.90
9219;DHT22;4644;48.858;9.184;2023-04-15T16:15:30;9.90;99.90
9219;DHT22;4644;48.858;9.184;2023-04-15T16:17:59;9.90;99.90
9219;DHT22;4644;48.858;9.184;2023-04-15T16:20:26;9.90;99.90